createdAt,value
2023-04-04T00:00:11.533Z,1.03
2023-04-04T00:03:20.172Z,1.60
2023-04-04T00:06:28.486Z,0.97
2023-04-04T00:09:37.220Z,1.07
2023-04-04T00:12:47.864Z,0.87
2023-04-04T00:15:57.194Z,1.37
2023-04-04T00:19:05.407Z,1.20
2023-04-04T00:22:14.165Z,1.00
2023-04-04T00:25:22.526Z,1.00
2023-04-04T00:28:32.108Z,0.93
2023-04-04T00:31:40.671Z,0.97
2023-04-04T00:34:54.298Z,1.17
2023-04-04T00:38:02.727Z,1.03
2023-04-04T00:41:12.475Z,1.37
2023-04-04T00:44:22.339Z,1.17
2023-04-04T00:47:32.325Z,1.03
2023-04-04T00:50:40.962Z,1.10
2023-04-04T00:53:51.888Z,1.13
2023-04-04T00:57:00.464Z,1.10
2023-04-04T01:00:15.579Z,1.10
2023-04-04T01:03:24.592Z,0.87
2023-04-04T01:06:33.055Z,1.10
2023-04-04T01:09:42.538Z,1.00
2023-04-04T01:12:51.437Z,1.00
2023-04-04T01:16:01.744Z,1.00
2023-04-04T01:19:18.480Z,0.90
2023-04-04T01:22:30.428Z,0.90
2023-04-04T01:25:40.244Z,1.10
2023-04-04T01:28:53.702Z,1.00
2023-04-04T01:32:09.382Z,1.03
2023-04-04T01:35:30.150Z,1.30
2023-04-04T01:38:52.336Z,1.07
2023-04-04T01:42:04.385Z,0.90
2023-04-04T01:45:13.717Z,1.57
2023-04-04T01:48:23.585Z,0.90
2023-04-04T01:51:35.082Z,1.10
2023-04-04T01:54:43.624Z,1.00
2023-04-04T01:57:53.225Z,1.20
2023-04-04T02:01:01.797Z,1.00
2023-04-04T02:04:12.475Z,0.90
2023-04-04T02:07:21.093Z,0.93
2023-04-04T02:10:30.952Z,1.23
2023-04-04T02:13:44.284Z,1.33
2023-04-04T02:16:55.136Z,1.50
2023-04-04T02:20:03.843Z,1.33
2023-04-04T02:23:12.050Z,1.73
2023-04-04T02:26:21.312Z,1.60
2023-04-04T02:29:31.104Z,1.50
2023-04-04T02:32:39.723Z,2.00
2023-04-04T02:35:49.264Z,1.20
2023-04-04T02:38:57.634Z,1.20
2023-04-04T02:42:07.950Z,1.07
2023-04-04T02:45:18.223Z,1.33
2023-04-04T02:48:36.337Z,1.33
2023-04-04T02:51:44.620Z,1.70
2023-04-04T02:54:52.935Z,1.47
2023-04-04T02:58:13.864Z,1.40
2023-04-04T03:01:23.642Z,1.40
2023-04-04T03:04:32.240Z,1.60
2023-04-04T03:07:40.635Z,1.30
2023-04-04T03:10:49.874Z,1.57
2023-04-04T03:13:58.212Z,1.27
2023-04-04T03:17:18.256Z,1.63
2023-04-04T03:20:28.002Z,1.07
2023-04-04T03:23:36.551Z,1.40
2023-04-04T03:26:45.478Z,1.43
2023-04-04T03:29:54.887Z,1.43
2023-04-04T03:33:08.634Z,1.47
2023-04-04T03:36:17.164Z,1.30
2023-04-04T03:39:30.896Z,1.50
2023-04-04T03:42:39.431Z,1.50
2023-04-04T03:45:51.699Z,1.70
2023-04-04T03:49:02.627Z,1.13
2023-04-04T03:52:10.731Z,1.30
2023-04-04T03:55:19.549Z,1.37
2023-04-04T03:58:28.953Z,1.37
2023-04-04T04:01:37.354Z,1.43
2023-04-04T04:04:47.255Z,1.27
2023-04-04T04:07:56.175Z,1.53
2023-04-04T04:11:08.114Z,1.03
2023-04-04T04:14:16.650Z,1.50
2023-04-04T04:17:25.491Z,1.20
2023-04-04T04:20:36.526Z,2.60
2023-04-04T04:23:44.703Z,1.80
2023-04-04T04:26:53.384Z,1.70
2023-04-04T04:30:02.009Z,1.87
2023-04-04T04:33:15.910Z,1.30
2023-04-04T04:36:37.821Z,1.10
2023-04-04T04:40:07.762Z,1.33
2023-04-04T04:43:21.654Z,1.47
2023-04-04T04:46:31.801Z,1.17
2023-04-04T04:49:42.282Z,0.87
2023-04-04T04:52:53.518Z,1.10
2023-04-04T04:56:02.042Z,1.40
2023-04-04T04:59:11.420Z,1.30
2023-04-04T05:02:22.838Z,1.50
2023-04-04T05:05:32.475Z,1.20
2023-04-04T05:08:46.961Z,1.60
2023-04-04T05:12:09.904Z,1.30
2023-04-04T05:15:26.179Z,1.40
2023-04-04T05:18:34.810Z,1.70
2023-04-04T05:21:43.917Z,2.17
2023-04-04T05:24:59.541Z,2.23
2023-04-04T05:28:08.037Z,2.03
2023-04-04T05:31:18.734Z,1.70
2023-04-04T05:34:28.158Z,1.70
2023-04-04T05:37:41.326Z,2.20
2023-04-04T05:40:56.285Z,3.57
2023-04-04T05:44:06.278Z,2.40
2023-04-04T05:47:15.020Z,1.53
2023-04-04T05:50:27.074Z,1.93
2023-04-04T05:53:41.252Z,1.83
2023-04-04T05:56:51.108Z,2.03
2023-04-04T06:00:20.718Z,1.50
2023-04-04T06:03:41.173Z,1.70
2023-04-04T06:06:56.443Z,1.57
2023-04-04T06:10:05.929Z,1.87
2023-04-04T06:13:18.031Z,1.40
2023-04-04T06:16:33.066Z,1.90
2023-04-04T06:19:41.374Z,2.60
2023-04-04T06:22:49.771Z,1.70
2023-04-04T06:25:58.865Z,2.10
2023-04-04T06:29:09.291Z,1.63
2023-04-04T06:32:21.946Z,2.00
2023-04-04T06:35:30.294Z,1.40
2023-04-04T06:38:41.153Z,2.23
2023-04-04T06:41:57.091Z,1.57
2023-04-04T06:45:11.355Z,2.10
2023-04-04T06:48:19.515Z,2.23
2023-04-04T06:51:28.676Z,1.80
2023-04-04T06:54:37.013Z,1.83
2023-04-04T06:57:45.304Z,1.67
2023-04-04T07:00:56.491Z,1.63
2023-04-04T07:07:54.459Z,1.73
2023-04-04T07:11:03.117Z,1.30
2023-04-04T07:14:11.534Z,1.70
2023-04-04T07:17:24.933Z,1.80
2023-04-04T07:20:33.904Z,1.60
2023-04-04T07:23:42.429Z,1.27
2023-04-04T07:26:50.873Z,1.60
2023-04-04T07:29:59.092Z,1.70
2023-04-04T07:33:08.682Z,1.83
2023-04-04T07:36:17.161Z,2.50
2023-04-04T07:39:25.413Z,1.70
2023-04-04T07:42:34.350Z,1.60
2023-04-04T07:45:42.819Z,1.47
2023-04-04T07:48:52.455Z,1.93
2023-04-04T07:52:00.901Z,1.87
2023-04-04T07:55:10.595Z,1.73
2023-04-04T07:58:18.819Z,1.90
2023-04-04T08:01:27.043Z,2.13
2023-04-04T08:04:37.744Z,1.80
2023-04-04T08:07:46.518Z,1.60
2023-04-04T08:10:58.645Z,2.00
2023-04-04T08:14:07.014Z,1.60
2023-04-04T08:17:18.964Z,1.67
2023-04-04T08:20:29.186Z,2.00
2023-04-04T08:23:37.412Z,1.90
2023-04-04T08:26:49.251Z,1.67
2023-04-04T08:30:09.305Z,2.17
2023-04-04T08:33:17.901Z,1.43
2023-04-04T08:36:27.488Z,2.30
2023-04-04T08:39:36.285Z,1.73
2023-04-04T08:42:46.372Z,1.90
2023-04-04T08:45:55.870Z,1.73
2023-04-04T08:49:06.144Z,1.70
2023-04-04T08:52:20.157Z,1.53
2023-04-04T08:55:28.658Z,1.87
2023-04-04T08:58:39.049Z,1.60
2023-04-04T09:01:47.669Z,1.73
2023-04-04T09:05:05.596Z,1.70
2023-04-04T09:08:20.089Z,1.70
2023-04-04T09:11:32.636Z,2.30
2023-04-04T09:14:42.743Z,1.90
2023-04-04T09:17:51.408Z,1.97
2023-04-04T09:21:01.436Z,1.77
2023-04-04T09:24:11.979Z,1.70
2023-04-04T09:27:21.781Z,1.77
2023-04-04T09:30:35.580Z,1.60
2023-04-04T09:33:44.117Z,1.83
2023-04-04T09:36:53.566Z,1.60
2023-04-04T09:40:06.774Z,1.80
2023-04-04T09:43:15.970Z,1.90
2023-04-04T09:46:25.255Z,1.80
2023-04-04T09:49:34.072Z,1.60
2023-04-04T09:52:45.230Z,1.80
2023-04-04T09:55:56.494Z,1.57
2023-04-04T09:59:05.486Z,1.67
2023-04-04T10:02:15.000Z,1.67
2023-04-04T10:05:25.441Z,1.83
2023-04-04T10:08:36.373Z,1.70
2023-04-04T10:11:47.150Z,1.50
2023-04-04T10:14:58.679Z,1.57
2023-04-04T10:18:10.049Z,2.20
2023-04-04T10:21:19.987Z,1.80
2023-04-04T10:24:28.299Z,1.87
2023-04-04T10:27:39.668Z,1.60
2023-04-04T10:31:05.811Z,1.80
2023-04-04T10:34:25.288Z,1.70
2023-04-04T10:37:41.898Z,1.77
2023-04-04T10:40:55.122Z,1.60
2023-04-04T10:44:19.850Z,1.93
2023-04-04T10:47:31.058Z,1.97
2023-04-04T10:50:40.328Z,1.80
2023-04-04T10:53:49.246Z,1.50
2023-04-04T10:57:01.524Z,1.70
2023-04-04T11:00:17.059Z,1.77
2023-04-04T11:03:26.185Z,2.00
2023-04-04T11:07:11.625Z,1.93
2023-04-04T11:10:26.177Z,2.10
2023-04-04T11:13:36.615Z,1.77
2023-04-04T11:16:52.971Z,1.83
2023-04-04T11:20:01.593Z,2.10
2023-04-04T11:23:16.992Z,1.80
2023-04-04T11:26:39.610Z,2.17
2023-04-04T11:29:53.918Z,2.10
2023-04-04T11:33:07.901Z,1.77
2023-04-04T11:36:26.113Z,1.97
2023-04-04T11:39:34.641Z,1.50
2023-04-04T11:42:43.470Z,1.63
2023-04-04T11:45:51.891Z,1.70
2023-04-04T11:49:04.063Z,1.80
2023-04-04T11:52:14.930Z,1.47
2023-04-04T11:55:23.856Z,1.43
2023-04-04T11:58:37.192Z,1.73
2023-04-04T12:01:46.901Z,1.60
2023-04-04T12:04:59.472Z,1.97
2023-04-04T12:08:11.128Z,1.70
2023-04-04T12:11:21.512Z,2.10
2023-04-04T12:14:30.114Z,1.37
2023-04-04T12:17:40.987Z,1.57
2023-04-04T12:20:52.877Z,2.23
2023-04-04T12:24:01.326Z,1.60
2023-04-04T12:27:09.945Z,1.80
2023-04-04T12:30:19.948Z,1.90
2023-04-04T12:33:28.363Z,2.03
2023-04-04T12:36:41.769Z,1.70
2023-04-04T12:39:52.565Z,2.33
2023-04-04T12:43:02.632Z,1.97
2023-04-04T12:46:11.984Z,1.73
2023-04-04T12:49:23.956Z,2.30
2023-04-04T12:52:34.665Z,2.10
2023-04-04T12:55:47.870Z,1.87
2023-04-04T12:59:04.695Z,1.80
2023-04-04T13:02:17.564Z,1.80
2023-04-04T13:05:26.807Z,1.70
2023-04-04T13:08:36.515Z,1.80
2023-04-04T13:12:02.135Z,1.70
2023-04-04T13:15:12.198Z,2.10
2023-04-04T13:18:23.691Z,1.63
2023-04-04T13:21:32.505Z,1.70
2023-04-04T13:24:42.364Z,1.50
2023-04-04T13:27:50.775Z,1.60
2023-04-04T13:30:59.947Z,1.60
2023-04-04T13:34:08.540Z,1.40
2023-04-04T13:37:16.922Z,1.80
2023-04-04T13:40:27.231Z,1.80
2023-04-04T13:43:36.421Z,1.90
2023-04-04T13:46:44.703Z,1.47
2023-04-04T13:49:53.232Z,2.07
2023-04-04T13:53:01.784Z,2.17
2023-04-04T13:56:17.622Z,1.47
2023-04-04T13:59:27.078Z,1.83
2023-04-04T14:02:35.416Z,1.50
2023-04-04T14:05:43.905Z,2.10
2023-04-04T14:08:52.437Z,1.77
2023-04-04T14:12:03.453Z,1.87
2023-04-04T14:15:13.292Z,1.80
2023-04-04T14:18:22.017Z,1.97
2023-04-04T14:21:30.944Z,1.53
2023-04-04T14:24:39.162Z,1.60
2023-04-04T14:27:48.897Z,1.30
2023-04-04T14:30:57.605Z,1.53
2023-04-04T14:34:06.770Z,1.60
2023-04-04T14:37:15.269Z,1.60
2023-04-04T14:40:23.553Z,1.70
2023-04-04T14:43:35.390Z,2.77
2023-04-04T14:46:44.798Z,1.83
2023-04-04T14:49:54.941Z,1.60
2023-04-04T14:53:04.224Z,2.00
2023-04-04T14:56:12.967Z,2.40
2023-04-04T14:59:22.971Z,1.60
2023-04-04T15:02:31.812Z,1.57
2023-04-04T15:05:40.708Z,1.90
2023-04-04T15:08:49.841Z,1.63
2023-04-04T15:11:59.391Z,1.67
2023-04-04T15:15:10.861Z,1.77
2023-04-04T15:18:19.216Z,1.70
2023-04-04T15:21:28.548Z,1.90
2023-04-04T15:24:36.717Z,1.90
2023-04-04T15:27:45.178Z,1.80
2023-04-04T15:30:55.107Z,1.47
2023-04-04T15:34:03.259Z,1.93
2023-04-04T15:37:12.259Z,1.70
2023-04-04T15:40:21.270Z,1.73
2023-04-04T15:43:30.050Z,1.60
2023-04-04T15:46:39.935Z,1.60
2023-04-04T15:49:48.339Z,1.37
2023-04-04T15:52:56.782Z,2.33
2023-04-04T15:56:05.085Z,1.63
2023-04-04T15:59:13.333Z,1.60
2023-04-04T16:02:23.049Z,1.70
2023-04-04T16:05:31.348Z,1.80
2023-04-04T16:08:39.627Z,1.60
2023-04-04T16:11:48.627Z,3.83
2023-04-04T16:14:57.202Z,8.40
2023-04-04T16:18:07.532Z,4.07
2023-04-04T16:21:18.050Z,7.47
2023-04-04T16:24:27.408Z,1.97
2023-04-04T16:27:36.877Z,1.73
2023-04-04T16:30:45.470Z,5.43
2023-04-04T16:33:55.221Z,3.07
2023-04-04T16:37:03.427Z,2.00
2023-04-04T16:40:14.156Z,2.20
2023-04-04T16:43:23.919Z,2.20
2023-04-04T16:46:32.610Z,1.73
2023-04-04T16:49:42.740Z,1.73
2023-04-04T16:52:50.932Z,1.70
2023-04-04T16:55:59.269Z,1.90
2023-04-04T16:59:07.560Z,1.80
2023-04-04T17:02:16.230Z,1.70
2023-04-04T17:05:26.343Z,1.33
2023-04-04T17:08:34.563Z,1.93
2023-04-04T17:11:45.188Z,1.97
2023-04-04T17:14:53.854Z,1.80
2023-04-04T17:18:02.985Z,1.57
2023-04-04T17:21:13.603Z,1.43
2023-04-04T17:24:23.193Z,1.30
2023-04-04T17:27:31.955Z,1.53
2023-04-04T17:30:40.399Z,1.50
2023-04-04T17:33:49.301Z,1.67
2023-04-04T17:36:59.299Z,1.43
2023-04-04T17:40:09.594Z,1.80
2023-04-04T17:43:18.093Z,1.40
2023-04-04T17:46:26.793Z,1.40
2023-04-04T17:49:35.486Z,1.73
2023-04-04T17:52:45.263Z,1.43
2023-04-04T17:55:53.660Z,1.50
2023-04-04T17:59:01.845Z,1.50
2023-04-04T18:02:10.111Z,1.53
2023-04-04T18:05:19.169Z,1.20
2023-04-04T18:08:28.719Z,1.30
2023-04-04T18:11:37.617Z,1.50
2023-04-04T18:14:46.117Z,1.27
2023-04-04T18:17:54.712Z,1.63
2023-04-04T18:21:03.071Z,1.47
2023-04-04T18:24:14.318Z,1.40
2023-04-04T18:27:22.764Z,2.40
2023-04-04T18:30:32.834Z,2.17
2023-04-04T18:33:41.328Z,2.00
2023-04-04T18:36:49.689Z,2.97
2023-04-04T18:39:59.670Z,4.20
2023-04-04T18:43:08.660Z,4.70
2023-04-04T18:46:17.921Z,4.23
2023-04-04T18:49:27.209Z,3.47
2023-04-04T18:52:36.163Z,3.70
2023-04-04T18:55:46.225Z,2.00
2023-04-04T18:59:01.377Z,2.27
2023-04-04T19:02:09.860Z,2.43
2023-04-04T19:05:25.318Z,1.93
2023-04-04T19:08:35.447Z,1.87
2023-04-04T19:11:45.557Z,1.20
2023-04-04T19:14:53.759Z,1.47
2023-04-04T19:18:02.537Z,1.40
2023-04-04T19:21:11.495Z,1.47
2023-04-04T19:24:20.479Z,1.37
2023-04-04T19:27:30.544Z,1.40
2023-04-04T19:30:44.995Z,1.33
2023-04-04T19:33:55.512Z,1.50
2023-04-04T19:37:04.265Z,1.20
2023-04-04T19:40:17.361Z,1.73
2023-04-04T19:43:28.750Z,1.23
2023-04-04T19:46:36.945Z,1.50
2023-04-04T19:49:45.322Z,1.77
2023-04-04T19:52:58.992Z,2.30
2023-04-04T19:56:10.010Z,2.40
2023-04-04T19:59:59.366Z,2.77
2023-04-04T20:03:08.861Z,3.20
2023-04-04T20:06:27.127Z,3.50
2023-04-04T20:09:39.825Z,3.90
2023-04-04T20:12:48.030Z,4.53
2023-04-04T20:16:01.896Z,5.00
2023-04-04T20:19:12.423Z,10.70
2023-04-04T20:22:20.778Z,9.07
2023-04-04T20:25:42.153Z,8.30
2023-04-04T20:28:50.909Z,11.00
2023-04-04T20:32:03.020Z,7.27
2023-04-04T20:35:27.830Z,10.20
2023-04-04T20:38:38.594Z,11.40
2023-04-04T20:41:46.834Z,10.20
2023-04-04T20:44:55.911Z,7.83
2023-04-04T20:48:08.094Z,3.93
2023-04-04T20:51:29.193Z,3.00
2023-04-04T20:54:37.598Z,2.63
2023-04-04T20:57:47.314Z,7.47
2023-04-04T21:00:57.872Z,7.23
2023-04-04T21:04:07.542Z,5.17
2023-04-04T21:07:40.211Z,7.17
2023-04-04T21:10:52.362Z,6.70
2023-04-04T21:14:00.493Z,9.73
2023-04-04T21:17:09.435Z,9.40
2023-04-04T21:21:16.791Z,8.57
2023-04-04T21:24:27.358Z,14.97
2023-04-04T21:27:36.467Z,7.13
2023-04-04T21:30:47.457Z,4.60
2023-04-04T21:33:58.172Z,3.77
2023-04-04T21:37:09.428Z,3.63
2023-04-04T21:40:17.689Z,2.60
2023-04-04T21:43:26.022Z,2.27
2023-04-04T21:46:37.157Z,2.23
2023-04-04T21:49:45.440Z,1.93
2023-04-04T21:52:54.902Z,2.00
2023-04-04T21:56:03.129Z,1.60
2023-04-04T21:59:11.712Z,1.80
2023-04-04T22:02:20.268Z,1.93
2023-04-04T22:05:36.407Z,1.77
2023-04-04T22:08:48.534Z,1.70
2023-04-04T22:11:58.905Z,1.73
2023-04-04T22:15:11.674Z,1.90
2023-04-04T22:18:30.685Z,2.17
2023-04-04T22:21:39.119Z,3.20
2023-04-04T22:24:51.270Z,4.33
2023-04-04T22:28:02.499Z,4.53
2023-04-04T22:31:10.860Z,4.60
2023-04-04T22:34:19.295Z,3.13
2023-04-04T22:37:29.140Z,2.80
2023-04-04T22:40:39.098Z,2.90
2023-04-04T22:43:47.509Z,2.57
2023-04-04T22:46:58.614Z,2.50
2023-04-04T22:50:09.475Z,2.53
2023-04-04T22:53:24.629Z,2.03
2023-04-04T22:56:34.780Z,2.30
2023-04-04T22:59:43.069Z,1.60
2023-04-04T23:02:52.537Z,2.00
2023-04-04T23:06:00.843Z,2.10
2023-04-04T23:09:09.253Z,1.60
2023-04-04T23:12:18.912Z,2.03
2023-04-04T23:15:28.911Z,1.90
2023-04-04T23:18:37.401Z,2.00
2023-04-04T23:21:45.571Z,1.63
2023-04-04T23:24:54.106Z,1.97
2023-04-04T23:28:03.946Z,2.00
2023-04-04T23:31:12.428Z,1.60
2023-04-04T23:34:21.760Z,2.03
2023-04-04T23:37:31.489Z,2.17
2023-04-04T23:40:40.135Z,1.53
2023-04-04T23:43:49.713Z,2.07
2023-04-04T23:46:58.025Z,1.60
2023-04-04T23:50:07.637Z,1.83
2023-04-04T23:53:16.139Z,1.37
2023-04-04T23:56:24.767Z,1.53
2023-04-04T23:59:34.305Z,2.00
